createdAt,value
2023-05-08T09:25:46.477Z,15.99
2023-05-08T09:28:16.347Z,16.18
2023-05-08T09:29:20.782Z,16.25
2023-05-08T09:30:22.176Z,16.22
2023-05-08T09:31:34.911Z,16.31
2023-05-08T09:32:38.441Z,16.45
2023-05-08T09:33:44.409Z,16.26
2023-05-08T09:34:52.443Z,16.28
2023-05-08T09:35:56.812Z,16.36
2023-05-08T09:37:07.421Z,16.45
2023-05-08T09:38:08.767Z,16.49
2023-05-08T09:39:14.119Z,16.61
2023-05-08T09:40:21.407Z,16.53
2023-05-08T09:41:24.071Z,16.49
2023-05-08T09:42:37.753Z,16.65
2023-05-08T09:43:39.455Z,16.64
2023-05-08T09:44:54.021Z,16.68
2023-05-08T09:45:55.552Z,16.72
2023-05-08T09:47:11.234Z,16.82
2023-05-08T09:48:12.610Z,16.81
2023-05-08T09:49:18.126Z,16.94
2023-05-08T09:50:19.611Z,16.81
2023-05-08T09:51:21.687Z,16.83
2023-05-08T09:52:24.045Z,16.93
2023-05-08T09:53:32.282Z,17.09
2023-05-08T09:54:34.793Z,17.17
2023-05-08T09:55:48.671Z,17.16
2023-05-08T09:56:50.939Z,17.19
2023-05-08T09:57:59.879Z,17.11
2023-05-08T09:59:03.586Z,17.24
2023-05-08T10:00:08.920Z,17.20
2023-05-08T10:01:31.500Z,17.12
2023-05-08T10:02:33.204Z,17.03
2023-05-08T10:03:48.471Z,17.21
2023-05-08T10:04:49.929Z,17.27
2023-05-08T10:05:51.551Z,17.16
2023-05-08T10:06:58.501Z,17.27
2023-05-08T10:08:17.843Z,17.35
2023-05-08T10:09:19.423Z,17.33
2023-05-08T10:10:28.527Z,17.48
2023-05-08T10:11:29.908Z,17.44
2023-05-08T10:12:32.206Z,17.43
2023-05-08T10:13:33.913Z,17.44
2023-05-08T10:14:35.344Z,17.49
2023-05-08T10:15:38.273Z,17.54
2023-05-08T10:16:44.016Z,17.60
2023-05-08T10:17:55.962Z,17.52
2023-05-08T10:19:02.344Z,17.55
2023-05-08T10:20:07.071Z,17.69
2023-05-08T10:21:09.046Z,17.54
2023-05-08T10:22:12.578Z,17.43
2023-05-08T10:23:19.016Z,17.37
2023-05-08T10:24:29.260Z,17.32
2023-05-08T10:25:34.002Z,17.29
2023-05-08T10:26:38.089Z,17.24
2023-05-08T10:27:55.196Z,16.93
2023-05-08T10:28:57.785Z,16.93
2023-05-08T10:30:04.185Z,16.99
2023-05-08T10:31:07.965Z,16.94
2023-05-08T10:32:10.592Z,17.00
2023-05-08T10:33:15.301Z,16.97
2023-05-08T10:34:20.725Z,16.21
2023-05-08T10:35:22.806Z,16.46
2023-05-08T11:27:37.844Z,16.64
2023-05-08T11:30:22.653Z,16.69
2023-05-08T11:31:24.371Z,16.62
2023-05-08T11:33:55.533Z,16.77
2023-05-08T11:34:57.353Z,16.73
2023-05-08T11:36:20.549Z,16.83
2023-05-08T11:39:07.922Z,16.83
2023-05-08T11:40:47.372Z,16.78
2023-05-08T11:43:24.265Z,16.69
2023-05-08T11:44:28.161Z,16.69
2023-05-08T11:45:30.812Z,16.65
2023-05-08T11:46:52.192Z,16.65
2023-05-08T11:48:00.971Z,16.73
2023-05-08T11:49:02.552Z,16.75
2023-05-08T11:50:04.727Z,16.77
2023-05-08T11:51:06.793Z,16.81
2023-05-08T11:52:08.238Z,16.81
2023-05-08T11:53:09.709Z,16.95
2023-05-08T11:54:20.971Z,17.00
2023-05-08T11:55:22.485Z,17.12
2023-05-08T11:56:24.636Z,17.18
2023-05-08T11:57:27.106Z,17.23
2023-05-08T11:58:28.663Z,17.25
2023-05-08T11:59:35.627Z,17.28
2023-05-08T12:00:41.132Z,17.40
2023-05-08T12:01:46.295Z,17.57
2023-05-08T12:02:50.098Z,17.72
2023-05-08T12:04:00.793Z,17.78
2023-05-08T12:05:03.132Z,17.78
2023-05-08T12:06:04.850Z,18.06
2023-05-08T12:07:06.287Z,18.21
2023-05-08T12:08:12.081Z,18.48
2023-05-08T12:09:18.350Z,17.95
2023-05-08T12:10:20.082Z,17.70
2023-05-08T12:11:27.741Z,17.63
2023-05-08T12:12:42.936Z,18.09
2023-05-08T12:13:51.562Z,18.80
2023-05-08T12:14:53.090Z,19.57
2023-05-08T12:15:59.072Z,19.53
2023-05-08T12:17:02.493Z,19.60
2023-05-08T12:18:04.221Z,19.09
2023-05-08T12:19:13.588Z,19.14
2023-05-08T12:20:19.340Z,18.86
2023-05-08T12:21:21.343Z,18.73
2023-05-08T12:22:22.764Z,19.19
2023-05-08T12:23:30.852Z,19.49
2023-05-08T12:24:32.379Z,19.65
2023-05-08T12:25:34.052Z,20.09
2023-05-08T12:26:37.583Z,20.47
2023-05-08T12:27:39.582Z,19.69
2023-05-08T12:28:44.500Z,19.29
2023-05-08T12:29:46.564Z,19.33
2023-05-08T12:30:49.620Z,19.08
2023-05-08T12:31:51.593Z,18.38
2023-05-08T12:32:53.447Z,18.44
2023-05-08T12:33:55.934Z,18.20
2023-05-08T12:34:57.637Z,18.26
2023-05-08T12:35:59.223Z,18.15
2023-05-08T12:37:04.634Z,18.61
2023-05-08T12:38:07.747Z,18.51
2023-05-08T12:39:13.852Z,18.60
2023-05-08T12:40:26.875Z,18.64
2023-05-08T12:41:28.452Z,18.85
2023-05-08T12:42:48.282Z,18.64
2023-05-08T12:43:49.758Z,18.89
2023-05-08T12:44:52.550Z,19.06
2023-05-08T12:45:54.168Z,19.05
2023-05-08T12:46:56.879Z,18.91
2023-05-08T12:48:03.647Z,18.98
2023-05-08T12:49:07.822Z,18.54
2023-05-08T12:50:10.170Z,18.29
2023-05-08T12:51:12.216Z,17.57
2023-05-08T12:52:13.890Z,17.12
2023-05-08T12:53:17.468Z,17.08
2023-05-08T12:54:18.943Z,17.36
2023-05-08T12:55:28.649Z,17.76
2023-05-08T12:56:30.234Z,18.10
2023-05-08T12:57:31.613Z,18.03
2023-05-08T12:58:34.473Z,18.09
2023-05-08T12:59:36.020Z,18.24
2023-05-08T13:00:37.373Z,18.23
2023-05-08T13:01:38.883Z,18.30
2023-05-08T13:02:49.022Z,18.43
2023-05-08T13:04:01.711Z,18.42
2023-05-08T13:05:05.800Z,18.32
2023-05-08T13:06:18.718Z,18.75
2023-05-08T13:07:20.107Z,18.63
2023-05-08T13:08:38.713Z,18.52
2023-05-08T13:09:55.267Z,18.40
2023-05-08T13:10:56.664Z,18.48
2023-05-08T13:11:58.921Z,18.56
2023-05-08T13:13:00.349Z,18.73
2023-05-08T13:14:01.834Z,18.74
2023-05-08T13:15:04.774Z,18.67
2023-05-08T13:16:07.751Z,18.46
2023-05-08T13:17:09.313Z,18.53
2023-05-08T13:18:11.083Z,18.54
2023-05-08T13:19:12.539Z,18.52
2023-05-08T13:20:14.573Z,18.40
2023-05-08T13:21:16.196Z,18.52
2023-05-08T13:22:17.717Z,18.52
2023-05-08T13:23:19.401Z,18.37
2023-05-08T13:24:21.297Z,18.53
2023-05-08T13:25:22.661Z,18.48
2023-05-08T13:26:25.858Z,18.50
2023-05-08T13:27:27.385Z,18.55
2023-05-08T13:28:28.943Z,18.59
2023-05-08T13:29:30.701Z,18.63
2023-05-08T13:30:32.212Z,18.38
2023-05-08T13:31:34.165Z,18.48
2023-05-08T13:32:35.714Z,18.68
2023-05-08T13:33:38.281Z,18.84
2023-05-08T13:34:47.279Z,18.86
2023-05-08T13:35:50.931Z,18.93
2023-05-08T13:36:52.859Z,18.78
2023-05-08T13:37:55.465Z,18.93
2023-05-08T13:38:57.454Z,18.96
2023-05-08T13:39:58.766Z,19.09
2023-05-08T13:41:00.360Z,19.18
2023-05-08T13:42:01.772Z,19.13
2023-05-08T13:43:03.421Z,18.99
2023-05-08T13:44:04.924Z,18.88
2023-05-08T13:45:07.787Z,18.92
2023-05-08T13:46:09.292Z,18.97
2023-05-08T13:47:11.003Z,18.63
2023-05-08T13:48:12.610Z,18.75
2023-05-08T13:49:14.281Z,18.79
2023-05-08T13:50:18.494Z,18.77
2023-05-08T13:51:27.394Z,18.68
2023-05-08T13:52:30.282Z,18.71
2023-05-08T13:53:31.682Z,18.78
2023-05-08T13:54:33.151Z,18.67
2023-05-08T13:55:36.169Z,18.60
2023-05-08T13:56:37.538Z,18.63
2023-05-08T13:57:39.547Z,18.59
2023-05-08T13:58:41.313Z,18.58
2023-05-08T13:59:42.966Z,18.54
2023-05-08T14:00:45.476Z,18.48
2023-05-08T14:01:46.945Z,18.44
2023-05-08T14:02:50.005Z,18.46
2023-05-08T14:03:53.565Z,18.50
2023-05-08T14:04:55.175Z,18.49
2023-05-08T14:05:56.683Z,18.26
2023-05-08T14:06:58.482Z,18.23
2023-05-08T14:07:59.882Z,18.11
2023-05-08T14:09:01.334Z,18.15
2023-05-08T14:10:03.064Z,18.20
2023-05-08T14:11:04.458Z,18.09
2023-05-08T14:12:06.261Z,17.99
2023-05-08T14:13:07.797Z,18.04
2023-05-08T14:14:09.363Z,18.18
2023-05-08T14:15:12.093Z,18.05
2023-05-08T14:16:16.108Z,18.03
2023-05-08T17:23:48.240Z,16.47
2023-05-08T17:24:49.651Z,16.54
2023-05-08T17:25:58.208Z,16.62
2023-05-08T17:26:59.824Z,16.71
2023-05-08T17:28:01.997Z,16.81
2023-05-08T17:29:03.565Z,16.80
2023-05-08T17:30:06.619Z,16.76
2023-05-08T17:31:08.014Z,16.96
2023-05-08T17:32:09.538Z,16.97
2023-05-08T17:33:11.060Z,16.89
2023-05-08T17:36:20.410Z,17.01
